Main page
Satellite images 10-day forecastsClimateMarine weather Cyclones Lightning AirportsFAQ Newsletter About
Weather : Europe Africa North America South America Asia Australia-Oceania Others
Languages Contact

Bordeaux, France

Bordeaux–Mérignac Airport

latitude: 44-50N, longitude: 000-42W, elevation: 49 m


METAR: LFBD 291730Z AUTO 34010KT 320V030 CAVOK 21/11 Q1016
TAF: LFBD 291700Z 2918/3024 36006KT CAVOK BECMG 3007/3009 05010KT

Time: 19:52 (17:52 UTC)

Current weather observation

The report was made 22 minutes ago, at 17:30 UTC
Wind 10 kt from the North/Northwest, varying between Northwest and North/Northeast
Temperature 21°C
Humidity 53%
Pressure 1016 hPa
Visibility 10 km or more
no clouds below 1500 m and no cumulonimbus

Change units

Forecast

The report was made 52 minutes ago, at 17:00 UTC
Forecast valid from 29 at 18 UTC to 30 at 24 UTC
Wind 6 kt from the North
Visibility 10 km or more
no clouds below 1500 m and no cumulonimbus
Becoming
from 30 at 07 UTC to 30 at 09 UTC
Wind 10 kt from the Northeast
The information on this site is subject to a disclaimer
Weather : Europe Africa North America South America Asia Australia-Oceania Others
Satellite images 10-day forecastsClimateMarine weather Cyclones Lightning AirportsFAQ Languages Contact Newsletter About